createdAt,value
2019-05-12T00:00:11.630Z,92.40
2019-05-12T00:02:59.112Z,93.00
2019-05-12T00:05:42.844Z,92.90
2019-05-12T00:08:27.799Z,93.30
2019-05-12T00:11:12.926Z,92.40
2019-05-12T00:14:08.701Z,92.30
2019-05-12T00:17:01.897Z,92.30
2019-05-12T00:19:47.952Z,92.30
2019-05-12T00:22:38.562Z,92.20
2019-05-12T00:25:38.765Z,92.90
2019-05-12T00:28:23.197Z,92.90
2019-05-12T00:31:08.360Z,92.00
2019-05-12T00:33:52.737Z,92.30
2019-05-12T00:36:37.985Z,92.30
2019-05-12T00:39:23.109Z,92.30
2019-05-12T00:42:18.278Z,92.10
2019-05-12T00:45:02.597Z,92.10
2019-05-12T00:47:48.053Z,92.10
2019-05-12T00:50:32.752Z,92.20
2019-05-12T00:53:18.875Z,92.00
2019-05-12T00:56:03.833Z,92.20
2019-05-12T00:58:48.840Z,92.20
2019-05-12T01:01:33.998Z,92.20
2019-05-12T01:04:29.218Z,92.40
2019-05-12T01:07:14.122Z,92.50
2019-05-12T01:10:01.413Z,93.10
2019-05-12T01:12:45.719Z,93.60
2019-05-12T01:15:39.543Z,93.50
2019-05-12T01:18:24.262Z,93.30
2019-05-12T01:21:08.962Z,93.30
2019-05-12T01:24:00.485Z,93.50
2019-05-12T01:26:39.951Z,93.50
2019-05-12T01:29:24.446Z,93.40
2019-05-12T01:35:55.179Z,93.60
2019-05-12T01:38:39.517Z,93.50
2019-05-12T01:41:24.403Z,93.70
2019-05-12T01:44:09.283Z,93.70
2019-05-12T01:46:54.155Z,93.60
2019-05-12T01:49:38.786Z,93.70
2019-05-12T01:52:23.466Z,93.70
2019-05-12T01:55:08.488Z,93.60
2019-05-12T01:57:53.514Z,93.60
2019-05-12T02:00:38.995Z,93.40
2019-05-12T02:03:24.391Z,93.50
2019-05-12T02:06:08.700Z,93.30
2019-05-12T02:09:03.647Z,93.50
2019-05-12T02:11:48.551Z,93.30
2019-05-12T02:14:33.394Z,93.30
2019-05-12T02:17:18.384Z,93.10
2019-05-12T02:20:12.096Z,93.30
2019-05-12T02:22:58.438Z,93.30
2019-05-12T02:25:43.159Z,93.30
2019-05-12T02:28:28.643Z,93.30
2019-05-12T02:31:29.858Z,93.20
2019-05-12T02:34:39.321Z,93.10
2019-05-12T02:37:26.227Z,93.20
2019-05-12T02:40:19.759Z,93.20
2019-05-12T02:43:05.420Z,93.20
2019-05-12T02:45:50.178Z,93.30
2019-05-12T02:48:35.717Z,93.30
2019-05-12T02:51:29.853Z,93.40
2019-05-12T02:54:14.487Z,93.70
2019-05-12T02:56:58.780Z,93.60
2019-05-12T02:59:44.868Z,93.50
2019-05-12T03:02:29.446Z,93.40
2019-05-12T03:05:24.796Z,93.40
2019-05-12T03:08:18.929Z,93.70
2019-05-12T03:11:05.980Z,93.90
2019-05-12T03:13:59.017Z,93.80
2019-05-12T03:16:45.329Z,93.70
2019-05-12T03:19:30.576Z,93.60
2019-05-12T03:22:15.834Z,93.70
2019-05-12T03:25:19.886Z,93.80
2019-05-12T03:28:08.170Z,94.20
2019-05-12T03:30:56.929Z,94.10
2019-05-12T03:33:43.319Z,94.10
2019-05-12T03:36:32.380Z,93.90
2019-05-12T03:39:15.018Z,94.00
2019-05-12T03:41:58.358Z,94.00
2019-05-12T03:44:44.545Z,94.20
2019-05-12T03:47:29.508Z,94.10
2019-05-12T03:50:14.971Z,94.30
2019-05-12T03:53:10.822Z,94.10
2019-05-12T03:56:04.582Z,94.00
2019-05-12T03:58:49.268Z,94.10
2019-05-12T04:01:36.401Z,94.10
2019-05-12T04:04:30.128Z,93.90
2019-05-12T04:07:24.385Z,94.00
2019-05-12T04:10:18.084Z,94.20
2019-05-12T04:13:04.556Z,94.00
2019-05-12T04:15:48.844Z,93.90
2019-05-12T04:18:34.983Z,94.00
2019-05-12T04:21:30.016Z,94.00
2019-05-12T04:24:24.979Z,93.70
2019-05-12T04:27:09.865Z,93.70
2019-05-12T04:29:54.790Z,93.90
2019-05-12T04:32:39.387Z,93.90
2019-05-12T04:35:25.259Z,93.70
2019-05-12T04:38:10.120Z,93.80
2019-05-12T04:40:55.573Z,93.50
2019-05-12T04:43:40.839Z,93.50
2019-05-12T04:46:34.769Z,93.50
2019-05-12T04:49:19.860Z,93.20
2019-05-12T04:52:15.579Z,93.20
2019-05-12T04:55:09.116Z,92.90
2019-05-12T04:57:54.542Z,93.10
2019-05-12T05:00:47.979Z,93.20
2019-05-12T05:03:34.960Z,93.20
2019-05-12T05:06:19.887Z,92.90
2019-05-12T05:09:14.466Z,92.80
2019-05-12T05:11:59.297Z,92.40
2019-05-12T05:14:54.948Z,92.80
2019-05-12T05:17:39.999Z,92.90
2019-05-12T05:20:25.114Z,92.50
2019-05-12T05:23:10.896Z,92.90
2019-05-12T05:25:55.631Z,92.70
2019-05-12T05:28:40.207Z,92.70
2019-05-12T05:31:33.875Z,92.60
2019-05-12T05:34:27.779Z,92.70
2019-05-12T05:37:14.542Z,92.50
2019-05-12T05:40:08.139Z,92.30
2019-05-12T05:42:54.264Z,92.50
2019-05-12T05:45:38.934Z,92.60
2019-05-12T05:48:24.194Z,92.50
2019-05-12T05:51:09.963Z,92.30
2019-05-12T05:53:55.081Z,92.30
2019-05-12T05:56:43.190Z,92.20
2019-05-12T05:59:31.364Z,92.30
2019-05-12T06:02:13.838Z,92.20
2019-05-12T06:05:08.675Z,92.10
2019-05-12T06:07:53.647Z,92.30
2019-05-12T06:10:40.514Z,91.90
2019-05-12T06:13:34.620Z,92.00
2019-05-12T06:16:28.219Z,91.90
2019-05-12T06:19:14.071Z,92.00
2019-05-12T06:21:59.359Z,91.60
2019-05-12T06:24:48.986Z,91.60
2019-05-12T06:27:39.494Z,91.30
2019-05-12T06:30:24.699Z,91.20
2019-05-12T06:33:09.528Z,91.30
2019-05-12T06:35:54.492Z,91.10
2019-05-12T06:38:48.296Z,91.20
2019-05-12T06:41:33.694Z,90.80
2019-05-12T06:44:19.536Z,91.10
2019-05-12T06:47:14.355Z,91.20
2019-05-12T06:49:59.323Z,91.00
2019-05-12T06:52:48.848Z,90.80
2019-05-12T06:55:36.658Z,90.80
2019-05-12T06:58:26.059Z,90.70
2019-05-12T07:01:11.008Z,90.30
2019-05-12T07:04:06.638Z,90.30
2019-05-12T07:06:49.813Z,90.30
2019-05-12T07:09:36.716Z,90.10
2019-05-12T07:12:26.276Z,88.20
2019-05-12T07:15:06.201Z,88.10
2019-05-12T07:17:55.867Z,87.30
2019-05-12T07:20:43.386Z,87.50
2019-05-12T07:23:30.256Z,87.20
2019-05-12T07:26:19.200Z,86.30
2019-05-12T07:29:00.716Z,86.20
2019-05-12T07:31:54.358Z,86.40
2019-05-12T07:34:39.177Z,85.50
2019-05-12T07:37:23.803Z,86.00
2019-05-12T07:40:08.649Z,86.20
2019-05-12T07:42:54.376Z,86.10
2019-05-12T07:45:40.337Z,84.70
2019-05-12T07:48:25.095Z,84.00
2019-05-12T07:51:09.643Z,84.30
2019-05-12T07:53:58.623Z,84.20
2019-05-12T07:56:43.462Z,83.60
2019-05-12T07:59:35.686Z,83.70
2019-05-12T08:02:14.283Z,83.00
2019-05-12T08:04:59.975Z,82.00
2019-05-12T08:07:44.848Z,82.60
2019-05-12T08:10:29.095Z,80.80
2019-05-12T08:13:14.829Z,81.50
2019-05-12T08:16:08.315Z,80.80
2019-05-12T08:18:53.465Z,80.60
2019-05-12T08:21:43.680Z,80.70
2019-05-12T08:24:36.901Z,80.10
2019-05-12T08:27:29.658Z,80.20
2019-05-12T08:30:14.039Z,80.50
2019-05-12T08:33:03.664Z,79.60
2019-05-12T08:35:45.964Z,78.90
2019-05-12T08:38:39.436Z,79.40
2019-05-12T08:41:24.427Z,78.70
2019-05-12T08:44:09.192Z,77.80
2019-05-12T08:46:56.659Z,77.90
2019-05-12T08:49:56.007Z,78.00
2019-05-12T08:52:45.488Z,77.50
2019-05-12T08:55:31.480Z,77.70
2019-05-12T08:58:30.280Z,76.80
2019-05-12T09:01:04.543Z,76.30
2019-05-12T09:03:49.767Z,75.10
2019-05-12T09:06:34.677Z,75.80
2019-05-12T09:09:28.510Z,74.90
2019-05-12T09:12:13.998Z,75.50
2019-05-12T09:14:59.099Z,76.00
2019-05-12T09:17:52.400Z,74.80
2019-05-12T09:20:48.143Z,74.00
2019-05-12T09:23:25.112Z,73.00
2019-05-12T09:26:09.575Z,73.80
2019-05-12T09:28:54.444Z,73.40
2019-05-12T09:31:39.423Z,72.30
2019-05-12T09:34:24.812Z,71.50
2019-05-12T09:37:18.203Z,71.70
2019-05-12T09:40:04.587Z,70.30
2019-05-12T09:42:49.618Z,70.30
2019-05-12T09:45:34.359Z,70.20
2019-05-12T09:48:19.323Z,70.80
2019-05-12T09:51:05.823Z,70.70
2019-05-12T09:53:51.416Z,70.10
2019-05-12T09:56:50.027Z,70.40
2019-05-12T09:59:45.845Z,70.00
2019-05-12T10:02:37.463Z,70.80
2019-05-12T10:05:22.022Z,71.20
2019-05-12T10:08:06.854Z,69.60
2019-05-12T10:10:53.433Z,68.50
2019-05-12T10:13:38.356Z,68.20
2019-05-12T10:16:24.103Z,67.80
2019-05-12T10:19:09.110Z,68.90
2019-05-12T10:21:58.201Z,68.40
2019-05-12T10:24:54.930Z,66.90
2019-05-12T10:27:31.869Z,66.50
2019-05-12T10:30:17.183Z,65.30
2019-05-12T10:33:03.460Z,65.40
2019-05-12T10:35:48.036Z,65.30
2019-05-12T10:38:34.355Z,63.10
2019-05-12T10:41:19.275Z,62.60
2019-05-12T10:44:04.107Z,63.60
2019-05-12T10:46:59.593Z,62.10
2019-05-12T10:49:44.547Z,62.80
2019-05-12T10:52:29.363Z,64.10
2019-05-12T10:55:15.911Z,64.80
2019-05-12T10:58:09.467Z,64.70
2019-05-12T11:00:58.947Z,65.50
2019-05-12T11:03:42.986Z,65.30
2019-05-12T11:06:27.235Z,65.10
2019-05-12T11:09:13.959Z,64.50
2019-05-12T11:12:07.951Z,64.50
2019-05-12T11:14:54.157Z,63.30
2019-05-12T11:17:58.089Z,63.30
2019-05-12T11:20:45.046Z,63.90
2019-05-12T11:23:29.055Z,63.70
2019-05-12T11:26:14.239Z,63.50
2019-05-12T11:28:59.058Z,64.20
2019-05-12T11:31:44.231Z,64.20
2019-05-12T11:34:37.976Z,65.40
2019-05-12T11:37:23.141Z,63.50
2019-05-12T11:40:16.807Z,62.60
2019-05-12T11:43:04.141Z,61.80
2019-05-12T11:45:48.318Z,61.40
2019-05-12T11:48:46.221Z,60.70
2019-05-12T11:51:38.224Z,60.60
2019-05-12T11:54:33.533Z,61.00
2019-05-12T11:57:20.169Z,61.60
2019-05-12T12:00:16.323Z,60.30
2019-05-12T12:03:57.151Z,60.30
2019-05-12T12:06:43.708Z,61.80
2019-05-12T12:09:27.900Z,61.70
2019-05-12T12:12:13.623Z,61.40
2019-05-12T12:15:07.440Z,63.20
2019-05-12T12:17:53.635Z,61.80
2019-05-12T12:20:38.730Z,60.30
2019-05-12T12:23:33.456Z,59.70
2019-05-12T12:29:38.663Z,58.20
2019-05-12T12:32:24.212Z,57.80
2019-05-12T12:35:11.855Z,58.10
2019-05-12T12:37:55.167Z,57.40
2019-05-12T12:40:48.894Z,56.90
2019-05-12T12:43:33.232Z,56.60
2019-05-12T12:46:24.246Z,56.20
2019-05-12T12:49:40.031Z,56.30
2019-05-12T12:52:24.381Z,62.50
2019-05-12T12:55:09.547Z,63.00
2019-05-12T12:58:03.462Z,63.20
2019-05-12T13:00:53.790Z,61.20
2019-05-12T13:03:43.879Z,60.20
2019-05-12T13:06:29.052Z,59.20
2019-05-12T13:09:24.735Z,58.90
2019-05-12T13:12:15.638Z,58.70
2019-05-12T13:14:55.127Z,57.20
2019-05-12T13:17:41.690Z,55.80
2019-05-12T13:20:36.619Z,53.00
2019-05-12T13:23:38.152Z,53.40
2019-05-12T13:26:16.587Z,55.30
2019-05-12T13:29:01.316Z,54.70
2019-05-12T13:31:48.288Z,54.40
2019-05-12T13:34:36.630Z,54.90
2019-05-12T13:37:28.403Z,54.40
2019-05-12T13:40:13.235Z,53.50
2019-05-12T13:42:57.962Z,52.90
2019-05-12T13:45:43.958Z,51.20
2019-05-12T13:48:28.283Z,49.30
2019-05-12T13:51:23.978Z,47.00
2019-05-12T13:54:20.116Z,46.90
2019-05-12T13:57:13.546Z,46.80
2019-05-12T14:00:08.495Z,45.30
2019-05-12T14:02:45.485Z,44.00
2019-05-12T14:05:29.963Z,43.00
2019-05-12T14:08:23.858Z,42.50
2019-05-12T14:11:18.892Z,42.90
2019-05-12T14:14:11.167Z,42.50
2019-05-12T14:16:57.440Z,43.10
2019-05-12T14:19:37.322Z,42.80
2019-05-12T14:22:33.721Z,42.00
2019-05-12T14:25:30.780Z,41.60
2019-05-12T14:28:16.349Z,41.50
2019-05-12T14:30:59.210Z,41.10
2019-05-12T14:33:53.999Z,40.20
2019-05-12T14:36:47.835Z,39.50
2019-05-12T14:39:34.449Z,39.80
2019-05-12T14:42:34.850Z,40.50
2019-05-12T14:45:25.641Z,39.90
2019-05-12T14:48:19.752Z,41.60
2019-05-12T14:51:05.459Z,42.80
2019-05-12T14:53:50.439Z,44.00
2019-05-12T14:56:35.760Z,44.10
2019-05-12T14:59:20.542Z,43.70
2019-05-12T15:02:06.401Z,42.60
2019-05-12T15:04:54.136Z,40.10
2019-05-12T15:07:42.474Z,39.80
2019-05-12T15:10:33.937Z,40.60
2019-05-12T15:13:19.072Z,40.90
2019-05-12T15:16:12.895Z,40.20
2019-05-12T15:18:57.847Z,40.60
2019-05-12T15:21:53.619Z,40.40
2019-05-12T15:24:38.043Z,39.20
2019-05-12T15:27:38.050Z,37.30
2019-05-12T15:30:22.114Z,36.30
2019-05-12T15:32:55.418Z,36.60
2019-05-12T15:35:40.476Z,36.40
2019-05-12T15:38:25.663Z,36.10
2019-05-12T15:41:20.207Z,35.30
2019-05-12T15:44:06.611Z,34.40
2019-05-12T15:46:53.586Z,34.40
2019-05-12T15:49:38.412Z,34.00
2019-05-12T15:52:24.691Z,34.60
2019-05-12T15:55:09.319Z,34.40
2019-05-12T15:57:54.003Z,34.10
2019-05-12T16:00:38.868Z,34.80
2019-05-12T16:03:26.082Z,34.90
2019-05-12T16:06:12.480Z,35.30
2019-05-12T16:08:57.188Z,34.40
2019-05-12T16:11:41.744Z,34.40
2019-05-12T16:14:30.354Z,34.60
2019-05-12T16:17:16.864Z,35.10
2019-05-12T16:19:59.359Z,34.70
2019-05-12T16:22:45.083Z,34.70
2019-05-12T16:25:31.107Z,34.60
2019-05-12T16:28:26.705Z,34.60
2019-05-12T16:31:11.490Z,35.10
2019-05-12T16:34:05.858Z,34.00
2019-05-12T16:36:54.223Z,34.10
2019-05-12T16:39:44.186Z,34.10
2019-05-12T16:42:24.951Z,34.70
2019-05-12T16:45:20.051Z,35.20
2019-05-12T16:48:09.497Z,34.80
2019-05-12T16:51:00.463Z,34.80
2019-05-12T16:53:45.255Z,35.00
2019-05-12T16:56:30.178Z,35.10
2019-05-12T16:59:19.637Z,35.80
2019-05-12T17:02:05.623Z,35.80
2019-05-12T17:04:57.164Z,35.30
2019-05-12T17:07:44.187Z,34.40
2019-05-12T17:10:40.565Z,35.40
2019-05-12T17:13:25.487Z,35.30
2019-05-12T17:16:10.039Z,34.80
2019-05-12T17:19:00.007Z,35.50
2019-05-12T17:21:57.683Z,35.90
2019-05-12T17:24:46.791Z,36.40
2019-05-12T17:27:40.851Z,36.40
2019-05-12T17:30:34.667Z,35.90
2019-05-12T17:33:22.849Z,35.90
2019-05-12T17:36:11.681Z,36.10
2019-05-12T17:38:56.187Z,36.60
2019-05-12T17:41:40.888Z,37.10
2019-05-12T17:44:25.236Z,37.80
2019-05-12T17:47:15.301Z,38.10
2019-05-12T17:50:00.519Z,38.50
2019-05-12T17:52:58.675Z,38.40
2019-05-12T17:55:50.809Z,38.20
2019-05-12T17:58:36.756Z,37.70
2019-05-12T18:01:31.381Z,38.30
2019-05-12T18:04:30.367Z,38.90
2019-05-12T18:07:23.814Z,39.50
2019-05-12T18:10:17.019Z,39.60
2019-05-12T18:13:03.843Z,40.00
2019-05-12T18:15:57.735Z,40.60
2019-05-12T18:18:43.580Z,41.10
2019-05-12T18:21:31.202Z,41.40
2019-05-12T18:24:14.765Z,41.70
2019-05-12T18:27:04.431Z,41.80
2019-05-12T18:29:45.911Z,42.20
2019-05-12T18:32:30.581Z,42.70
2019-05-12T18:35:15.699Z,42.90
2019-05-12T18:38:00.670Z,43.00
2019-05-12T18:40:45.395Z,43.00
2019-05-12T18:43:30.550Z,43.30
2019-05-12T18:46:15.564Z,43.30
2019-05-12T18:49:12.725Z,43.60
2019-05-12T18:52:04.814Z,43.80
2019-05-12T18:54:52.543Z,44.20
2019-05-12T18:57:39.094Z,44.50
2019-05-12T19:00:33.917Z,44.70
2019-05-12T19:03:20.772Z,44.90
2019-05-12T19:06:05.157Z,45.10
2019-05-12T19:08:53.702Z,45.00
2019-05-12T19:11:42.201Z,45.50
2019-05-12T19:14:37.130Z,45.70
2019-05-12T19:17:19.779Z,45.70
2019-05-12T19:20:05.247Z,45.80
2019-05-12T19:22:57.410Z,45.80
2019-05-12T19:25:40.369Z,46.20
2019-05-12T19:28:23.795Z,46.70
2019-05-12T19:31:17.715Z,47.00
2019-05-12T19:34:17.655Z,47.00
2019-05-12T19:36:58.496Z,47.10
2019-05-12T19:39:53.861Z,47.30
2019-05-12T19:42:38.971Z,47.60
2019-05-12T19:45:33.822Z,47.70
2019-05-12T19:48:24.826Z,47.90
2019-05-12T19:51:20.049Z,48.10
2019-05-12T19:53:51.688Z,48.10
2019-05-12T19:56:39.618Z,48.20
2019-05-12T19:59:23.670Z,48.30
2019-05-12T20:02:17.528Z,48.80
2019-05-12T20:05:04.583Z,49.00
2019-05-12T20:07:57.851Z,48.90
2019-05-12T20:10:49.246Z,49.10
2019-05-12T20:13:40.037Z,49.30
2019-05-12T20:16:36.272Z,49.70
2019-05-12T20:19:29.880Z,49.90
2019-05-12T20:22:14.745Z,50.10
2019-05-12T20:25:00.767Z,50.30
2019-05-12T20:27:46.628Z,50.20
2019-05-12T20:30:31.579Z,50.50
2019-05-12T20:33:16.004Z,50.80
2019-05-12T20:36:09.435Z,50.80
2019-05-12T20:38:54.359Z,51.20
2019-05-12T20:41:39.877Z,51.40
2019-05-12T20:44:24.639Z,51.50
2019-05-12T20:47:09.344Z,51.50
2019-05-12T20:49:53.892Z,51.50
2019-05-12T20:52:51.321Z,51.80
2019-05-12T20:55:39.503Z,52.20
2019-05-12T20:58:35.246Z,52.40
2019-05-12T21:01:20.271Z,52.60
2019-05-12T21:04:07.501Z,53.00
2019-05-12T21:06:53.978Z,53.00
2019-05-12T21:09:37.943Z,53.20
2019-05-12T21:12:24.176Z,53.40
2019-05-12T21:15:15.957Z,53.60
2019-05-12T21:18:02.463Z,53.80
2019-05-12T21:20:54.474Z,54.10
2019-05-12T21:23:38.893Z,54.00
2019-05-12T21:29:35.095Z,55.60
2019-05-12T21:32:20.187Z,56.90
2019-05-12T21:35:21.308Z,57.50
2019-05-12T21:38:00.471Z,59.20
2019-05-12T21:40:45.224Z,61.20
2019-05-12T21:43:30.079Z,63.10
2019-05-12T21:46:13.192Z,64.30
2019-05-12T21:49:21.466Z,65.70
2019-05-12T21:52:06.773Z,66.00
2019-05-12T21:55:00.479Z,67.30
2019-05-12T21:57:45.237Z,68.30
2019-05-12T22:00:34.100Z,68.80
2019-05-12T22:03:19.191Z,69.40
2019-05-12T22:06:15.287Z,70.10
2019-05-12T22:09:00.926Z,69.70
2019-05-12T22:11:42.190Z,67.00
2019-05-12T22:14:46.400Z,69.50
2019-05-12T22:17:58.768Z,70.50
2019-05-12T22:20:46.100Z,71.30
2019-05-12T22:23:30.595Z,74.10
2019-05-12T22:26:24.368Z,74.70
2019-05-12T22:29:08.895Z,75.40
2019-05-12T22:31:54.090Z,76.20
2019-05-12T22:34:42.123Z,76.30
2019-05-12T22:37:29.442Z,76.90
2019-05-12T22:40:18.840Z,77.00
2019-05-12T22:43:01.339Z,78.10
2019-05-12T22:45:55.563Z,78.20
2019-05-12T22:48:40.771Z,78.40
2019-05-12T22:51:34.359Z,78.80
2019-05-12T22:54:19.623Z,79.30
2019-05-12T22:57:13.686Z,79.10
2019-05-12T23:00:07.469Z,80.00
2019-05-12T23:02:54.100Z,80.30
2019-05-12T23:05:50.706Z,80.80
2019-05-12T23:08:38.882Z,81.10
2019-05-12T23:11:32.528Z,81.10
2019-05-12T23:14:20.542Z,81.50
2019-05-12T23:17:05.827Z,81.80
2019-05-12T23:19:58.867Z,81.90
2019-05-12T23:22:54.408Z,82.10
2019-05-12T23:25:38.871Z,82.40
2019-05-12T23:28:23.262Z,82.90
2019-05-12T23:31:07.939Z,83.10
2019-05-12T23:33:54.337Z,83.40
2019-05-12T23:36:50.383Z,84.40
2019-05-12T23:39:38.265Z,84.30
2019-05-12T23:42:31.162Z,84.20
2019-05-12T23:45:15.451Z,84.20
2019-05-12T23:48:00.558Z,84.30
2019-05-12T23:50:45.100Z,84.70
2019-05-12T23:53:29.315Z,84.70
2019-05-12T23:56:22.959Z,84.60
2019-05-12T23:59:07.883Z,84.50
